Sorell, Australia
Current Conditions -  °F | °C
As of 3:17 AM on Saturday 01 Nov 2014 (Local Time) from YMHB Reporting Station
Clear Clear  
Wind Chill: 64°   Ceiling: Unl
Heat Index: 64°   Visibility: 6mi
Dew Point: 41°   Wind: 17mph
Humidity: 42%   Direction: 330°NNW
Pressure: 29.23"   Gusts: 29mph
Location:  42.78°S, 147.56°E
Report Text: YMHB 311617Z 33015G25KT CAVOK 18/05 Q0990
Loading
Personal Weather Stations






























Interactive Weather Map
Tropical Storm Tracking
New forecast layout! Learn more

10-Day Weather Forecast

Advertisements
Track Severe Weather on mobile